createdAt,value
2022-08-12T00:01:04.719Z,4.68
2022-08-12T00:03:51.495Z,4.50
2022-08-12T00:06:40.534Z,5.60
2022-08-12T00:09:26.861Z,5.13
2022-08-12T00:12:13.555Z,4.35
2022-08-12T00:15:01.706Z,4.80
2022-08-12T00:17:48.078Z,4.72
2022-08-12T00:20:34.573Z,4.90
2022-08-12T00:23:21.749Z,5.38
2022-08-12T00:26:22.860Z,4.32
2022-08-12T00:29:12.454Z,4.63
2022-08-12T00:32:00.099Z,5.13
2022-08-12T00:34:49.096Z,4.72
2022-08-12T00:37:36.703Z,4.35
2022-08-12T00:40:29.273Z,5.10
2022-08-12T00:42:57.894Z,15.52
2022-08-12T00:45:25.817Z,40.67
2022-08-12T00:47:54.327Z,42.60
2022-08-12T00:50:23.022Z,22.58
2022-08-12T00:52:53.321Z,20.95
2022-08-12T00:55:21.353Z,19.83
2022-08-12T00:57:51.923Z,13.48
2022-08-12T01:00:25.043Z,10.38
2022-08-12T01:02:57.540Z,10.93
2022-08-12T01:05:44.935Z,5.45
2022-08-12T01:08:32.009Z,7.53
2022-08-12T01:11:18.579Z,9.07
2022-08-12T01:13:50.001Z,6.85
2022-08-12T01:16:23.193Z,6.47
2022-08-12T01:18:53.411Z,4.22
2022-08-12T01:21:45.572Z,6.68
2022-08-12T01:24:35.000Z,6.85
2022-08-12T01:27:07.724Z,4.28
2022-08-12T01:29:42.197Z,4.03
2022-08-12T01:32:14.955Z,6.53
2022-08-12T01:34:53.008Z,5.55
2022-08-12T01:37:24.439Z,6.18
2022-08-12T01:40:33.564Z,5.97
2022-08-12T01:42:51.030Z,4.38
2022-08-12T01:45:24.416Z,4.50
2022-08-12T01:48:24.692Z,4.00
2022-08-12T01:51:05.326Z,3.58
2022-08-12T01:54:04.555Z,3.92
2022-08-12T01:56:50.407Z,3.10
2022-08-12T01:59:47.028Z,4.05
2022-08-12T02:02:19.203Z,3.92
2022-08-12T02:05:26.099Z,3.00
2022-08-12T02:08:52.121Z,3.60
2022-08-12T02:11:30.466Z,2.78
2022-08-12T02:14:36.514Z,3.25
2022-08-12T02:17:55.370Z,2.75
2022-08-12T02:20:52.732Z,3.00
2022-08-12T02:23:26.913Z,3.17
2022-08-12T02:25:59.575Z,3.63
2022-08-12T02:28:27.974Z,3.20
2022-08-12T02:30:57.089Z,3.70
2022-08-12T02:33:25.474Z,2.88
2022-08-12T02:35:53.872Z,2.80
2022-08-12T02:38:21.799Z,2.72
2022-08-12T02:40:54.824Z,2.50
2022-08-12T02:43:55.500Z,3.95
2022-08-12T02:46:34.699Z,3.78
2022-08-12T02:49:09.997Z,2.53
2022-08-12T02:51:44.364Z,2.50
2022-08-12T02:54:13.006Z,2.25
2022-08-12T02:56:50.534Z,2.10
2022-08-12T02:59:21.930Z,4.25
2022-08-12T03:01:53.392Z,2.28
2022-08-12T03:04:26.879Z,2.80
2022-08-12T03:07:05.312Z,2.17
2022-08-12T03:09:45.009Z,2.55
2022-08-12T03:12:25.056Z,2.65
2022-08-12T03:14:55.076Z,2.00
2022-08-12T03:17:33.798Z,2.30
2022-08-12T03:20:09.223Z,2.28
2022-08-12T03:22:42.013Z,2.30
2022-08-12T03:25:21.597Z,2.35
2022-08-12T03:27:55.640Z,2.60
2022-08-12T03:30:29.340Z,2.10
2022-08-12T03:32:58.186Z,2.67
2022-08-12T03:35:40.277Z,1.90
2022-08-12T03:38:12.052Z,2.42
2022-08-12T03:41:22.555Z,1.80
2022-08-12T03:44:50.179Z,3.30
2022-08-12T03:47:49.725Z,2.42
2022-08-12T03:50:37.599Z,1.80
2022-08-12T03:53:28.038Z,2.15
2022-08-12T03:56:14.357Z,2.90
2022-08-12T03:59:00.808Z,2.20
2022-08-12T04:01:28.250Z,1.70
2022-08-12T04:03:56.003Z,3.55
2022-08-12T04:06:35.147Z,2.00
2022-08-12T04:09:14.479Z,2.00
2022-08-12T04:12:02.847Z,2.25
2022-08-12T04:14:30.785Z,2.22
2022-08-12T04:16:58.401Z,2.13
2022-08-12T04:19:26.628Z,2.95
2022-08-12T04:22:01.989Z,1.95
2022-08-12T04:24:35.237Z,3.15
2022-08-12T04:27:08.614Z,2.10
2022-08-12T04:30:29.921Z,2.42
2022-08-12T04:32:25.633Z,2.65
2022-08-12T04:34:53.373Z,3.40
2022-08-12T04:37:20.870Z,2.05
2022-08-12T04:39:49.835Z,2.10
2022-08-12T04:42:17.230Z,4.28
2022-08-12T04:44:45.194Z,2.67
2022-08-12T04:47:15.092Z,1.92
2022-08-12T04:49:45.123Z,1.88
2022-08-12T04:52:12.694Z,1.85
2022-08-12T04:54:40.102Z,2.03
2022-08-12T04:57:09.659Z,2.10
2022-08-12T04:59:47.614Z,2.00
2022-08-12T05:02:22.631Z,2.63
2022-08-12T05:04:52.151Z,2.75
2022-08-12T05:07:20.918Z,2.88
2022-08-12T05:10:00.670Z,2.05
2022-08-12T05:12:36.489Z,1.95
2022-08-12T05:15:16.729Z,1.83
2022-08-12T05:17:53.443Z,3.05
2022-08-12T05:20:21.166Z,2.53
2022-08-12T05:22:50.019Z,2.30
2022-08-12T05:25:21.301Z,1.95
2022-08-12T05:27:58.278Z,2.08
2022-08-12T05:30:27.755Z,2.00
2022-08-12T05:32:59.797Z,2.58
2022-08-12T05:35:28.145Z,2.25
2022-08-12T05:38:15.369Z,2.08
2022-08-12T05:40:42.733Z,3.30
2022-08-12T05:43:09.985Z,3.35
2022-08-12T05:45:41.545Z,2.20
2022-08-12T05:50:40.189Z,3.00
2022-08-12T05:53:07.659Z,3.90
2022-08-12T05:55:36.412Z,5.00
2022-08-12T05:58:05.444Z,3.83
2022-08-12T06:00:33.450Z,4.05
2022-08-12T06:03:02.255Z,5.00
2022-08-12T06:05:54.424Z,6.28
2022-08-12T06:08:24.790Z,9.57
2022-08-12T06:10:52.359Z,9.32
2022-08-12T06:13:28.685Z,8.48
2022-08-12T06:16:09.812Z,14.55
2022-08-12T06:18:40.785Z,17.25
2022-08-12T06:21:17.284Z,11.45
2022-08-12T06:23:45.575Z,86.60
2022-08-12T06:26:16.418Z,98.38
2022-08-12T06:28:44.264Z,85.00
2022-08-12T06:31:32.149Z,85.20
2022-08-12T06:35:24.246Z,73.63
2022-08-12T06:36:48.139Z,63.55
2022-08-12T06:39:16.802Z,52.92
2022-08-12T06:42:31.998Z,44.22
2022-08-12T06:44:50.606Z,43.78
2022-08-12T06:47:19.443Z,38.28
2022-08-12T06:49:46.752Z,33.35
2022-08-12T06:52:14.076Z,38.22
2022-08-12T06:54:45.889Z,29.70
2022-08-12T06:58:06.221Z,35.03
2022-08-12T07:00:00.595Z,31.23
2022-08-12T07:02:27.904Z,27.50
2022-08-12T07:04:55.202Z,22.52
2022-08-12T07:07:22.575Z,29.20
2022-08-12T07:10:03.624Z,25.33
2022-08-12T07:15:02.549Z,22.80
2022-08-12T07:17:35.883Z,24.17
2022-08-12T07:20:06.708Z,19.70
2022-08-12T07:22:34.062Z,20.73
2022-08-12T07:25:19.852Z,22.30
2022-08-12T07:27:47.785Z,20.42
2022-08-12T07:30:15.051Z,17.00
2022-08-12T07:32:42.427Z,18.20
2022-08-12T07:35:09.954Z,19.95
2022-08-12T07:37:42.105Z,12.80
2022-08-12T07:40:12.029Z,17.88
2022-08-12T07:42:41.519Z,15.30
2022-08-12T07:45:09.546Z,15.35
2022-08-12T07:47:37.941Z,19.40
2022-08-12T07:50:09.250Z,14.38
2022-08-12T07:52:39.575Z,17.20
2022-08-12T07:55:08.189Z,17.17
2022-08-12T07:57:47.882Z,12.02
2022-08-12T08:00:15.947Z,12.40
2022-08-12T08:02:43.331Z,14.45
2022-08-12T08:05:10.654Z,11.88
2022-08-12T08:07:38.700Z,14.88
2022-08-12T08:10:10.792Z,12.10
2022-08-12T08:12:53.506Z,10.50
2022-08-12T08:15:33.887Z,8.57
2022-08-12T08:18:14.953Z,13.07
2022-08-12T08:20:55.146Z,10.25
2022-08-12T08:23:22.445Z,10.98
2022-08-12T08:28:24.321Z,9.60
2022-08-12T08:30:52.893Z,7.05
2022-08-12T08:33:24.838Z,10.20
2022-08-12T08:36:10.841Z,10.10
2022-08-12T08:38:56.028Z,8.48
2022-08-12T08:42:17.157Z,8.48
2022-08-12T08:44:32.935Z,6.82
2022-08-12T08:47:01.320Z,8.38
2022-08-12T08:49:28.871Z,8.27
2022-08-12T08:51:56.242Z,10.15
2022-08-12T08:54:24.688Z,7.72
2022-08-12T08:56:52.374Z,8.40
2022-08-12T08:59:20.275Z,11.05
2022-08-12T09:01:48.311Z,6.80
2022-08-12T09:05:07.306Z,6.80
2022-08-12T09:10:02.463Z,6.65
2022-08-12T09:12:54.220Z,7.03
2022-08-12T09:15:35.088Z,6.50
2022-08-12T09:18:08.515Z,8.80
2022-08-12T09:20:38.287Z,7.30
2022-08-12T09:25:55.263Z,6.45
2022-08-12T09:28:31.313Z,6.30
2022-08-12T09:31:00.020Z,7.00
2022-08-12T09:34:26.088Z,6.03
2022-08-12T09:36:30.924Z,7.40
2022-08-12T09:40:05.245Z,7.43
2022-08-12T09:42:40.405Z,5.82
2022-08-12T09:46:11.391Z,5.47
2022-08-12T09:48:20.104Z,6.28
2022-08-12T09:50:51.922Z,8.20
2022-08-12T09:53:36.501Z,7.80
2022-08-12T09:56:58.316Z,6.85
2022-08-12T09:59:00.567Z,7.68
2022-08-12T10:01:34.676Z,6.67
2022-08-12T10:04:19.572Z,6.03
2022-08-12T10:06:55.301Z,9.27
2022-08-12T10:09:28.866Z,7.28
2022-08-12T10:12:53.483Z,6.20
2022-08-12T10:16:02.458Z,6.82
2022-08-12T10:18:07.914Z,6.35
2022-08-12T10:20:35.414Z,5.53
2022-08-12T10:23:03.570Z,8.50
2022-08-12T10:26:36.197Z,7.38
2022-08-12T10:29:02.074Z,5.82
2022-08-12T10:31:47.362Z,5.63
2022-08-12T10:34:26.238Z,5.35
2022-08-12T10:36:58.658Z,6.30
2022-08-12T10:39:44.375Z,6.10
2022-08-12T10:42:38.286Z,5.88
2022-08-12T10:45:09.082Z,5.38
2022-08-12T10:48:19.123Z,5.68
2022-08-12T10:50:56.395Z,6.00
2022-08-12T10:53:20.308Z,5.18
2022-08-12T10:56:08.111Z,8.55
2022-08-12T10:58:36.667Z,4.95
2022-08-12T11:01:50.441Z,7.22
2022-08-12T11:04:31.872Z,6.05
2022-08-12T11:07:06.102Z,5.35
2022-08-12T11:09:56.469Z,7.38
2022-08-12T11:12:56.543Z,5.95
2022-08-12T11:15:18.581Z,8.45
2022-08-12T11:17:53.973Z,5.03
2022-08-12T11:20:24.429Z,6.07
2022-08-12T11:22:59.362Z,7.70
2022-08-12T11:25:55.402Z,6.78
2022-08-12T11:28:15.899Z,6.22
2022-08-12T11:30:44.475Z,8.05
2022-08-12T11:33:24.448Z,8.32
2022-08-12T11:36:13.988Z,5.85
2022-08-12T11:38:42.298Z,7.97
2022-08-12T11:41:10.209Z,6.45
2022-08-12T11:43:50.224Z,8.07
2022-08-12T11:46:24.844Z,6.45
2022-08-12T11:48:52.566Z,7.45
2022-08-12T11:51:21.046Z,5.32
2022-08-12T11:53:58.317Z,6.32
2022-08-12T11:56:38.540Z,5.97
2022-08-12T12:02:01.304Z,6.78
2022-08-12T12:04:31.620Z,6.32
2022-08-12T12:07:07.312Z,7.15
2022-08-12T12:09:52.678Z,7.07
2022-08-12T12:12:22.340Z,6.53
2022-08-12T12:14:54.441Z,6.40
2022-08-12T12:17:25.727Z,7.85
2022-08-12T12:19:55.026Z,7.75
2022-08-12T12:22:23.676Z,7.47
2022-08-12T12:24:59.496Z,7.18
2022-08-12T12:28:05.729Z,7.28
2022-08-12T12:30:34.919Z,8.05
2022-08-12T12:33:02.446Z,7.72
2022-08-12T12:36:17.042Z,8.30
2022-08-12T12:38:17.652Z,7.53
2022-08-12T12:40:50.498Z,7.40
2022-08-12T12:43:28.663Z,7.80
2022-08-12T12:46:06.237Z,7.55
2022-08-12T12:48:36.083Z,7.43
2022-08-12T12:51:49.324Z,6.85
2022-08-12T12:54:09.940Z,8.10
2022-08-12T12:56:41.874Z,8.05
2022-08-12T12:59:33.802Z,8.13
2022-08-12T13:02:02.029Z,7.60
2022-08-12T13:04:37.367Z,7.45
2022-08-12T13:07:06.547Z,9.38
2022-08-12T13:09:36.453Z,8.57
2022-08-12T13:12:06.556Z,10.90
2022-08-12T13:14:40.019Z,8.60
2022-08-12T13:17:14.494Z,8.02
2022-08-12T13:19:48.261Z,8.95
2022-08-12T13:22:21.122Z,7.90
2022-08-12T13:24:55.714Z,8.57
2022-08-12T13:27:35.486Z,7.18
2022-08-12T13:30:12.386Z,8.57
2022-08-12T13:32:57.409Z,8.15
2022-08-12T13:36:05.092Z,8.05
2022-08-12T13:38:38.817Z,7.88
2022-08-12T13:41:11.154Z,9.68
2022-08-12T13:43:41.090Z,9.57
2022-08-12T13:46:12.225Z,7.80
2022-08-12T13:48:45.070Z,8.27
2022-08-12T13:51:14.099Z,8.07
2022-08-12T13:53:57.731Z,7.82
2022-08-12T13:56:34.441Z,8.52
2022-08-12T13:59:07.847Z,9.80
2022-08-12T14:01:40.550Z,9.10
2022-08-12T14:04:12.291Z,8.75
2022-08-12T14:06:41.073Z,8.63
2022-08-12T14:09:15.489Z,9.30
2022-08-12T14:11:48.286Z,8.45
2022-08-12T14:14:26.325Z,10.23
2022-08-12T14:16:54.211Z,8.93
2022-08-12T14:19:22.223Z,9.50
2022-08-12T14:22:01.530Z,9.05
2022-08-12T14:24:40.321Z,9.52
2022-08-12T14:27:10.693Z,9.57
2022-08-12T14:30:04.870Z,9.43
2022-08-12T14:32:37.118Z,10.15
2022-08-12T14:35:09.235Z,10.43
2022-08-12T14:37:57.063Z,10.88
2022-08-12T14:40:28.004Z,11.32
2022-08-12T14:42:57.082Z,10.32
2022-08-12T14:45:45.133Z,11.85
2022-08-12T14:48:13.363Z,11.75
2022-08-12T14:51:02.667Z,11.52
2022-08-12T14:59:26.745Z,12.20
2022-08-12T15:02:19.539Z,13.27
2022-08-12T15:04:50.342Z,12.18
2022-08-12T15:07:33.549Z,12.02
2022-08-12T15:10:05.819Z,11.73
2022-08-12T15:12:34.932Z,11.55
2022-08-12T15:15:08.885Z,11.48
2022-08-12T15:17:39.854Z,11.90
2022-08-12T15:20:33.261Z,12.65
2022-08-12T15:22:58.098Z,12.23
2022-08-12T15:25:27.089Z,11.35
2022-08-12T15:28:20.331Z,17.17
2022-08-12T15:30:42.274Z,13.20
2022-08-12T15:33:14.900Z,13.10
2022-08-12T15:35:50.320Z,12.93
2022-08-12T15:38:29.689Z,20.13
2022-08-12T15:41:00.080Z,15.00
2022-08-12T15:43:50.967Z,16.98
2022-08-12T15:46:21.257Z,17.08
2022-08-12T15:48:53.324Z,10.52
2022-08-12T15:51:59.536Z,17.17
2022-08-12T15:54:34.938Z,10.88
2022-08-12T15:57:10.411Z,10.80
2022-08-12T16:00:00.131Z,9.63
2022-08-12T16:02:29.842Z,12.43
2022-08-12T16:04:57.696Z,8.63
2022-08-12T16:07:29.862Z,6.70
2022-08-12T16:10:05.438Z,9.43
2022-08-12T16:12:39.651Z,12.02
2022-08-12T16:15:08.721Z,8.30
2022-08-12T16:18:18.333Z,10.02
2022-08-12T16:20:33.302Z,9.48
2022-08-12T16:23:04.585Z,7.65
2022-08-12T16:26:05.727Z,6.03
2022-08-12T16:28:37.950Z,6.78
2022-08-12T16:31:05.742Z,3.47
2022-08-12T16:33:59.391Z,4.50
2022-08-12T16:36:26.438Z,5.55
2022-08-12T16:38:53.684Z,4.13
2022-08-12T16:41:22.765Z,8.27
2022-08-12T16:43:50.482Z,4.63
2022-08-12T16:46:31.665Z,5.45
2022-08-12T16:49:04.251Z,9.13
2022-08-12T16:51:40.487Z,5.22
2022-08-12T16:54:12.750Z,7.32
2022-08-12T16:56:50.617Z,7.88
2022-08-12T16:59:22.263Z,5.13
2022-08-12T17:01:49.650Z,9.02
2022-08-12T17:04:17.625Z,6.32
2022-08-12T17:06:47.983Z,6.30
2022-08-12T17:09:17.044Z,5.47
2022-08-12T17:11:45.300Z,4.30
2022-08-12T17:14:16.871Z,5.07
2022-08-12T17:16:45.757Z,4.28
2022-08-12T17:19:16.930Z,4.50
2022-08-12T17:21:51.968Z,5.63
2022-08-12T17:24:32.421Z,5.60
2022-08-12T17:27:01.162Z,2.80
2022-08-12T17:30:03.130Z,3.92
2022-08-12T17:32:28.245Z,4.35
2022-08-12T17:35:17.413Z,2.70
2022-08-12T17:37:44.748Z,4.50
2022-08-12T17:40:34.351Z,5.18
2022-08-12T17:43:55.882Z,6.05
2022-08-12T17:46:07.827Z,5.55
2022-08-12T17:48:55.122Z,7.05
2022-08-12T17:51:26.035Z,7.20
2022-08-12T17:56:37.390Z,9.30
2022-08-12T17:59:07.581Z,5.40
2022-08-12T18:01:39.141Z,5.90
2022-08-12T18:04:21.817Z,7.57
2022-08-12T18:06:52.015Z,16.53
2022-08-12T18:09:21.604Z,18.10
2022-08-12T18:12:11.593Z,16.67
2022-08-12T18:14:41.299Z,17.60
2022-08-12T18:17:10.110Z,22.90
2022-08-12T18:20:05.450Z,13.38
2022-08-12T18:22:30.741Z,11.77
2022-08-12T18:26:11.400Z,12.73
2022-08-12T18:28:16.601Z,5.63
2022-08-12T18:30:52.403Z,7.97
2022-08-12T18:33:25.090Z,4.85
2022-08-12T18:35:55.487Z,3.97
2022-08-12T18:38:25.330Z,4.50
2022-08-12T18:41:17.514Z,2.90
2022-08-12T18:43:58.474Z,4.82
2022-08-12T18:46:35.959Z,6.22
2022-08-12T18:49:18.799Z,2.15
2022-08-12T18:51:55.124Z,3.58
2022-08-12T18:54:34.085Z,3.47
2022-08-12T18:57:15.491Z,7.55
2022-08-12T18:59:59.961Z,5.55
2022-08-12T19:02:33.020Z,4.90
2022-08-12T19:05:09.951Z,6.78
2022-08-12T19:07:49.337Z,5.97
2022-08-12T19:10:23.137Z,4.40
2022-08-12T19:13:11.524Z,3.47
2022-08-12T19:15:45.378Z,3.17
2022-08-12T19:18:13.689Z,8.40
2022-08-12T19:20:42.049Z,4.55
2022-08-12T19:26:00.387Z,5.43
2022-08-12T19:28:35.638Z,10.70
2022-08-12T19:31:58.879Z,8.65
2022-08-12T19:38:03.450Z,10.07
2022-08-12T19:40:31.453Z,10.23
2022-08-12T19:43:18.331Z,16.52
2022-08-12T19:45:54.471Z,7.80
2022-08-12T19:48:30.346Z,5.50
2022-08-12T19:50:58.386Z,7.03
2022-08-12T19:53:30.102Z,8.38
2022-08-12T19:56:17.712Z,6.65
2022-08-12T19:58:46.213Z,6.80
2022-08-12T20:01:17.376Z,4.97
2022-08-12T20:03:47.889Z,5.95
2022-08-12T20:06:29.315Z,6.90
2022-08-12T20:08:59.610Z,8.70
2022-08-12T20:12:11.454Z,7.45
2022-08-12T20:14:19.426Z,5.82
2022-08-12T20:16:54.434Z,6.88
2022-08-12T20:19:52.517Z,6.28
2022-08-12T20:22:24.368Z,5.25
2022-08-12T20:25:08.872Z,9.23
2022-08-12T20:28:05.428Z,4.65
2022-08-12T20:30:35.210Z,5.90
2022-08-12T20:33:05.499Z,6.30
2022-08-12T20:36:06.408Z,7.47
2022-08-12T20:38:27.418Z,4.88
2022-08-12T20:40:55.965Z,5.60
2022-08-12T20:43:28.407Z,4.30
2022-08-12T20:45:59.555Z,7.15
2022-08-12T20:48:29.430Z,8.20
2022-08-12T20:51:04.399Z,6.38
2022-08-12T20:53:58.324Z,10.57
2022-08-12T20:56:31.265Z,7.80
2022-08-12T20:59:01.111Z,9.73
2022-08-12T21:01:46.125Z,11.45
2022-08-12T21:04:35.813Z,7.63
2022-08-12T21:07:09.647Z,7.55
2022-08-12T21:09:42.006Z,7.28
2022-08-12T21:12:27.621Z,3.72
2022-08-12T21:15:17.051Z,4.95
2022-08-12T21:18:10.676Z,6.78
2022-08-12T21:20:52.377Z,3.40
2022-08-12T21:23:23.753Z,5.03
2022-08-12T21:25:56.816Z,4.15
2022-08-12T21:28:31.167Z,5.85
2022-08-12T21:32:34.685Z,3.75
2022-08-12T21:34:07.932Z,4.32
2022-08-12T21:36:43.351Z,6.03
2022-08-12T21:39:35.559Z,4.30
2022-08-12T21:42:06.848Z,5.10
2022-08-12T21:45:47.989Z,5.28
2022-08-12T21:47:25.446Z,6.00
2022-08-12T21:50:02.192Z,3.88
2022-08-12T21:52:35.553Z,4.25
2022-08-12T21:55:08.657Z,4.68
2022-08-12T21:57:50.486Z,4.95
2022-08-12T22:00:20.793Z,3.60
2022-08-12T22:03:07.888Z,3.38
2022-08-12T22:05:54.165Z,4.03
2022-08-12T22:08:22.221Z,3.40
2022-08-12T22:10:56.310Z,4.35
2022-08-12T22:14:03.038Z,4.68
2022-08-12T22:16:14.037Z,4.15
2022-08-12T22:18:44.402Z,3.42
2022-08-12T22:21:22.199Z,5.95
2022-08-12T22:24:04.962Z,3.80
2022-08-12T22:26:37.459Z,3.67
2022-08-12T22:29:27.445Z,3.10
2022-08-12T22:31:56.118Z,3.70
2022-08-12T22:34:33.166Z,3.03
2022-08-12T22:37:01.088Z,3.42
2022-08-12T22:39:28.488Z,4.47
2022-08-12T22:42:19.802Z,3.67
2022-08-12T22:45:05.859Z,3.20
2022-08-12T22:47:54.485Z,4.05
2022-08-12T22:50:27.188Z,3.13
2022-08-12T22:53:19.540Z,2.67
2022-08-12T22:56:05.659Z,3.53
2022-08-12T22:58:40.531Z,3.95
2022-08-12T23:01:10.846Z,2.70
2022-08-12T23:03:48.648Z,3.10
2022-08-12T23:06:20.173Z,3.15
2022-08-12T23:08:48.124Z,3.55
2022-08-12T23:11:17.289Z,3.50
2022-08-12T23:13:57.016Z,3.85
2022-08-12T23:16:31.134Z,3.00
2022-08-12T23:19:22.757Z,3.65
2022-08-12T23:22:06.683Z,3.30
2022-08-12T23:24:53.882Z,4.18
2022-08-12T23:27:51.213Z,2.85
2022-08-12T23:30:31.023Z,3.03
2022-08-12T23:33:00.074Z,2.75
2022-08-12T23:35:53.624Z,2.75
2022-08-12T23:38:30.509Z,3.83
2022-08-12T23:41:03.509Z,4.05
2022-08-12T23:43:42.920Z,3.10
2022-08-12T23:46:18.526Z,2.72
2022-08-12T23:48:50.462Z,3.35
2022-08-12T23:51:26.092Z,2.67
2022-08-12T23:54:00.051Z,3.50
2022-08-12T23:58:57.422Z,2.60
